sensor_id;sensor_type;location;lat;lon;timestamp;P1;durP1;ratioP1;P2;durP2;ratioP2
51792;SDS011;37850;53.178;6.376;2023-04-16T00:02:18;101.47;;;31.38;;
51792;SDS011;37850;53.178;6.376;2023-04-16T00:04:44;104.07;;;29.23;;
51792;SDS011;37850;53.178;6.376;2023-04-16T00:07:10;91.70;;;28.52;;
51792;SDS011;37850;53.178;6.376;2023-04-16T00:09:35;93.97;;;29.55;;
51792;SDS011;37850;53.178;6.376;2023-04-16T00:12:01;101.35;;;30.38;;
51792;SDS011;37850;53.178;6.376;2023-04-16T00:14:28;99.53;;;31.85;;
51792;SDS011;37850;53.178;6.376;2023-04-16T00:16:54;109.07;;;31.55;;
51792;SDS011;37850;53.178;6.376;2023-04-16T00:19:20;101.70;;;31.63;;
51792;SDS011;37850;53.178;6.376;2023-04-16T00:21:45;99.18;;;28.80;;
51792;SDS011;37850;53.178;6.376;2023-04-16T00:24:11;125.38;;;31.55;;
51792;SDS011;37850;53.178;6.376;2023-04-16T00:26:37;107.65;;;33.15;;
51792;SDS011;37850;53.178;6.376;2023-04-16T00:29:03;105.03;;;31.60;;
51792;SDS011;37850;53.178;6.376;2023-04-16T00:31:29;108.47;;;30.90;;
51792;SDS011;37850;53.178;6.376;2023-04-16T00:33:56;97.97;;;30.40;;
51792;SDS011;37850;53.178;6.376;2023-04-16T00:36:22;109.18;;;33.08;;
51792;SDS011;37850;53.178;6.376;2023-04-16T00:38:49;93.22;;;28.60;;
51792;SDS011;37850;53.178;6.376;2023-04-16T00:41:15;88.00;;;29.90;;
51792;SDS011;37850;53.178;6.376;2023-04-16T00:43:41;94.45;;;28.10;;
51792;SDS011;37850;53.178;6.376;2023-04-16T00:46:07;91.20;;;29.58;;
51792;SDS011;37850;53.178;6.376;2023-04-16T00:48:33;88.57;;;28.15;;
51792;SDS011;37850;53.178;6.376;2023-04-16T00:51:01;97.57;;;29.60;;
51792;SDS011;37850;53.178;6.376;2023-04-16T00:53:29;92.15;;;28.85;;
51792;SDS011;37850;53.178;6.376;2023-04-16T00:55:55;103.28;;;29.73;;
51792;SDS011;37850;53.178;6.376;2023-04-16T00:58:21;107.00;;;29.83;;
51792;SDS011;37850;53.178;6.376;2023-04-16T01:00:47;89.05;;;28.67;;
51792;SDS011;37850;53.178;6.376;2023-04-16T01:03:13;92.35;;;31.33;;
51792;SDS011;37850;53.178;6.376;2023-04-16T01:05:39;95.68;;;31.73;;
51792;SDS011;37850;53.178;6.376;2023-04-16T01:08:05;81.95;;;27.88;;
51792;SDS011;37850;53.178;6.376;2023-04-16T01:10:31;93.53;;;29.90;;
51792;SDS011;37850;53.178;6.376;2023-04-16T01:12:56;79.57;;;28.33;;
51792;SDS011;37850;53.178;6.376;2023-04-16T01:15:22;78.85;;;27.05;;
51792;SDS011;37850;53.178;6.376;2023-04-16T01:17:48;86.63;;;28.70;;
51792;SDS011;37850;53.178;6.376;2023-04-16T01:20:14;89.65;;;30.00;;
51792;SDS011;37850;53.178;6.376;2023-04-16T01:22:40;87.65;;;31.35;;
51792;SDS011;37850;53.178;6.376;2023-04-16T01:25:06;80.22;;;28.83;;
51792;SDS011;37850;53.178;6.376;2023-04-16T01:27:32;95.47;;;30.08;;
51792;SDS011;37850;53.178;6.376;2023-04-16T01:29:58;82.65;;;30.02;;
51792;SDS011;37850;53.178;6.376;2023-04-16T01:32:23;79.55;;;31.77;;
51792;SDS011;37850;53.178;6.376;2023-04-16T01:34:49;76.35;;;28.95;;
51792;SDS011;37850;53.178;6.376;2023-04-16T01:37:15;83.55;;;29.55;;
51792;SDS011;37850;53.178;6.376;2023-04-16T01:39:41;70.65;;;29.65;;
51792;SDS011;37850;53.178;6.376;2023-04-16T01:42:07;82.53;;;30.10;;
51792;SDS011;37850;53.178;6.376;2023-04-16T01:44:32;85.95;;;29.38;;
51792;SDS011;37850;53.178;6.376;2023-04-16T01:46:58;86.15;;;30.45;;
51792;SDS011;37850;53.178;6.376;2023-04-16T01:49:24;89.25;;;30.02;;
51792;SDS011;37850;53.178;6.376;2023-04-16T01:51:50;83.22;;;30.80;;
51792;SDS011;37850;53.178;6.376;2023-04-16T01:54:15;79.95;;;28.48;;
51792;SDS011;37850;53.178;6.376;2023-04-16T01:56:41;103.85;;;31.77;;
51792;SDS011;37850;53.178;6.376;2023-04-16T01:59:07;84.65;;;29.92;;
51792;SDS011;37850;53.178;6.376;2023-04-16T02:01:32;80.75;;;30.15;;
51792;SDS011;37850;53.178;6.376;2023-04-16T02:03:58;75.90;;;29.90;;
51792;SDS011;37850;53.178;6.376;2023-04-16T02:06:24;88.80;;;31.05;;
51792;SDS011;37850;53.178;6.376;2023-04-16T02:08:51;86.80;;;29.70;;
51792;SDS011;37850;53.178;6.376;2023-04-16T02:11:17;71.45;;;29.70;;
51792;SDS011;37850;53.178;6.376;2023-04-16T02:13:43;93.72;;;31.00;;
51792;SDS011;37850;53.178;6.376;2023-04-16T02:16:08;81.60;;;29.33;;
51792;SDS011;37850;53.178;6.376;2023-04-16T02:18:34;81.80;;;30.33;;
51792;SDS011;37850;53.178;6.376;2023-04-16T02:21:00;85.28;;;32.58;;
51792;SDS011;37850;53.178;6.376;2023-04-16T02:23:26;87.93;;;30.48;;
51792;SDS011;37850;53.178;6.376;2023-04-16T02:25:52;84.15;;;30.65;;
51792;SDS011;37850;53.178;6.376;2023-04-16T02:28:18;81.45;;;30.10;;
51792;SDS011;37850;53.178;6.376;2023-04-16T02:30:43;72.15;;;29.00;;
51792;SDS011;37850;53.178;6.376;2023-04-16T02:33:10;78.95;;;30.35;;
51792;SDS011;37850;53.178;6.376;2023-04-16T02:35:37;71.85;;;27.23;;
51792;SDS011;37850;53.178;6.376;2023-04-16T02:38:04;86.45;;;30.90;;
51792;SDS011;37850;53.178;6.376;2023-04-16T02:40:31;84.05;;;30.15;;
51792;SDS011;37850;53.178;6.376;2023-04-16T02:42:57;74.70;;;31.10;;
51792;SDS011;37850;53.178;6.376;2023-04-16T02:45:22;91.45;;;32.28;;
51792;SDS011;37850;53.178;6.376;2023-04-16T02:47:48;91.80;;;30.90;;
51792;SDS011;37850;53.178;6.376;2023-04-16T02:50:15;95.85;;;32.60;;
51792;SDS011;37850;53.178;6.376;2023-04-16T02:52:41;88.45;;;31.88;;
51792;SDS011;37850;53.178;6.376;2023-04-16T02:55:07;99.68;;;31.80;;
51792;SDS011;37850;53.178;6.376;2023-04-16T02:57:33;107.25;;;33.13;;
51792;SDS011;37850;53.178;6.376;2023-04-16T02:59:59;97.78;;;33.53;;
51792;SDS011;37850;53.178;6.376;2023-04-16T03:02:25;96.70;;;31.55;;
51792;SDS011;37850;53.178;6.376;2023-04-16T03:04:54;102.40;;;30.77;;
51792;SDS011;37850;53.178;6.376;2023-04-16T03:07:19;100.40;;;29.48;;
51792;SDS011;37850;53.178;6.376;2023-04-16T03:09:45;92.28;;;28.23;;
51792;SDS011;37850;53.178;6.376;2023-04-16T03:12:11;96.57;;;29.65;;
51792;SDS011;37850;53.178;6.376;2023-04-16T03:14:37;92.45;;;28.77;;
51792;SDS011;37850;53.178;6.376;2023-04-16T03:17:02;88.75;;;28.48;;
51792;SDS011;37850;53.178;6.376;2023-04-16T03:19:28;91.20;;;28.13;;
51792;SDS011;37850;53.178;6.376;2023-04-16T03:21:54;87.05;;;27.10;;
51792;SDS011;37850;53.178;6.376;2023-04-16T03:24:20;95.38;;;28.35;;
51792;SDS011;37850;53.178;6.376;2023-04-16T03:26:46;100.97;;;29.17;;
51792;SDS011;37850;53.178;6.376;2023-04-16T03:29:11;107.72;;;29.90;;
51792;SDS011;37850;53.178;6.376;2023-04-16T03:31:37;93.88;;;29.02;;
51792;SDS011;37850;53.178;6.376;2023-04-16T03:34:02;81.70;;;27.48;;
51792;SDS011;37850;53.178;6.376;2023-04-16T03:36:28;90.72;;;28.55;;
51792;SDS011;37850;53.178;6.376;2023-04-16T03:38:55;75.80;;;26.90;;
51792;SDS011;37850;53.178;6.376;2023-04-16T03:41:20;81.65;;;26.95;;
51792;SDS011;37850;53.178;6.376;2023-04-16T03:43:46;76.88;;;26.13;;
51792;SDS011;37850;53.178;6.376;2023-04-16T03:46:12;94.47;;;28.73;;
51792;SDS011;37850;53.178;6.376;2023-04-16T03:48:37;89.40;;;30.33;;
51792;SDS011;37850;53.178;6.376;2023-04-16T03:51:03;93.90;;;30.85;;
51792;SDS011;37850;53.178;6.376;2023-04-16T03:53:29;88.05;;;29.92;;
51792;SDS011;37850;53.178;6.376;2023-04-16T03:55:54;79.55;;;30.45;;
51792;SDS011;37850;53.178;6.376;2023-04-16T03:58:20;66.50;;;26.88;;
51792;SDS011;37850;53.178;6.376;2023-04-16T04:00:46;89.45;;;26.80;;
51792;SDS011;37850;53.178;6.376;2023-04-16T04:03:12;78.78;;;26.55;;
51792;SDS011;37850;53.178;6.376;2023-04-16T04:05:40;86.53;;;27.40;;
51792;SDS011;37850;53.178;6.376;2023-04-16T04:08:06;79.75;;;26.40;;
51792;SDS011;37850;53.178;6.376;2023-04-16T04:10:33;75.47;;;26.30;;
51792;SDS011;37850;53.178;6.376;2023-04-16T04:13:01;70.07;;;25.25;;
51792;SDS011;37850;53.178;6.376;2023-04-16T04:15:28;80.30;;;25.13;;
51792;SDS011;37850;53.178;6.376;2023-04-16T04:17:53;86.60;;;26.08;;
51792;SDS011;37850;53.178;6.376;2023-04-16T04:20:20;82.65;;;23.95;;
51792;SDS011;37850;53.178;6.376;2023-04-16T04:22:45;79.78;;;24.98;;
51792;SDS011;37850;53.178;6.376;2023-04-16T04:25:11;71.82;;;22.35;;
51792;SDS011;37850;53.178;6.376;2023-04-16T04:27:37;79.35;;;24.77;;
51792;SDS011;37850;53.178;6.376;2023-04-16T04:30:03;87.88;;;25.63;;
51792;SDS011;37850;53.178;6.376;2023-04-16T04:32:29;86.72;;;25.27;;
51792;SDS011;37850;53.178;6.376;2023-04-16T04:34:56;77.30;;;24.23;;
51792;SDS011;37850;53.178;6.376;2023-04-16T04:37:21;72.43;;;22.83;;
51792;SDS011;37850;53.178;6.376;2023-04-16T04:39:47;73.03;;;22.75;;
51792;SDS011;37850;53.178;6.376;2023-04-16T04:42:15;69.20;;;23.05;;
51792;SDS011;37850;53.178;6.376;2023-04-16T04:44:42;69.95;;;24.42;;
51792;SDS011;37850;53.178;6.376;2023-04-16T04:47:07;70.25;;;21.52;;
51792;SDS011;37850;53.178;6.376;2023-04-16T04:49:33;71.57;;;22.65;;
51792;SDS011;37850;53.178;6.376;2023-04-16T04:51:59;78.47;;;23.02;;
51792;SDS011;37850;53.178;6.376;2023-04-16T04:54:25;84.75;;;25.27;;
51792;SDS011;37850;53.178;6.376;2023-04-16T04:56:52;89.70;;;21.50;;
51792;SDS011;37850;53.178;6.376;2023-04-16T04:59:19;74.93;;;22.63;;
51792;SDS011;37850;53.178;6.376;2023-04-16T05:01:45;84.90;;;24.02;;
51792;SDS011;37850;53.178;6.376;2023-04-16T05:04:11;94.07;;;23.48;;
51792;SDS011;37850;53.178;6.376;2023-04-16T05:06:37;70.72;;;23.50;;
51792;SDS011;37850;53.178;6.376;2023-04-16T05:09:02;76.95;;;24.50;;
51792;SDS011;37850;53.178;6.376;2023-04-16T05:11:28;86.82;;;22.23;;
51792;SDS011;37850;53.178;6.376;2023-04-16T05:13:54;71.07;;;22.33;;
51792;SDS011;37850;53.178;6.376;2023-04-16T05:16:20;69.22;;;21.38;;
51792;SDS011;37850;53.178;6.376;2023-04-16T05:18:45;60.72;;;20.70;;
51792;SDS011;37850;53.178;6.376;2023-04-16T05:21:11;72.57;;;22.90;;
51792;SDS011;37850;53.178;6.376;2023-04-16T05:23:37;57.33;;;20.63;;
51792;SDS011;37850;53.178;6.376;2023-04-16T05:26:02;64.05;;;21.88;;
51792;SDS011;37850;53.178;6.376;2023-04-16T05:28:28;56.88;;;21.63;;
51792;SDS011;37850;53.178;6.376;2023-04-16T05:30:54;69.30;;;20.95;;
51792;SDS011;37850;53.178;6.376;2023-04-16T05:33:20;63.35;;;21.83;;
51792;SDS011;37850;53.178;6.376;2023-04-16T05:35:46;70.93;;;22.50;;
51792;SDS011;37850;53.178;6.376;2023-04-16T05:38:12;73.82;;;22.17;;
51792;SDS011;37850;53.178;6.376;2023-04-16T05:40:37;77.57;;;22.48;;
51792;SDS011;37850;53.178;6.376;2023-04-16T05:43:03;75.15;;;22.60;;
51792;SDS011;37850;53.178;6.376;2023-04-16T05:45:29;74.13;;;22.52;;
51792;SDS011;37850;53.178;6.376;2023-04-16T05:47:57;76.90;;;22.75;;
51792;SDS011;37850;53.178;6.376;2023-04-16T05:50:23;81.60;;;24.58;;
51792;SDS011;37850;53.178;6.376;2023-04-16T05:52:48;75.30;;;22.85;;
51792;SDS011;37850;53.178;6.376;2023-04-16T05:55:14;78.18;;;23.58;;
51792;SDS011;37850;53.178;6.376;2023-04-16T05:57:39;84.57;;;23.58;;
51792;SDS011;37850;53.178;6.376;2023-04-16T06:00:07;92.90;;;24.45;;
51792;SDS011;37850;53.178;6.376;2023-04-16T06:02:33;81.00;;;22.67;;
51792;SDS011;37850;53.178;6.376;2023-04-16T06:04:58;74.63;;;22.17;;
51792;SDS011;37850;53.178;6.376;2023-04-16T06:07:24;80.45;;;22.85;;
51792;SDS011;37850;53.178;6.376;2023-04-16T06:09:50;74.38;;;22.98;;
51792;SDS011;37850;53.178;6.376;2023-04-16T06:12:15;80.22;;;22.08;;
51792;SDS011;37850;53.178;6.376;2023-04-16T06:14:41;72.57;;;22.92;;
51792;SDS011;37850;53.178;6.376;2023-04-16T06:17:06;68.57;;;22.17;;
51792;SDS011;37850;53.178;6.376;2023-04-16T06:19:32;68.32;;;21.17;;
51792;SDS011;37850;53.178;6.376;2023-04-16T06:21:58;71.68;;;21.10;;
51792;SDS011;37850;53.178;6.376;2023-04-16T06:24:24;67.03;;;21.40;;
51792;SDS011;37850;53.178;6.376;2023-04-16T06:26:49;67.63;;;21.38;;
51792;SDS011;37850;53.178;6.376;2023-04-16T06:29:15;65.05;;;21.60;;
51792;SDS011;37850;53.178;6.376;2023-04-16T06:31:41;69.93;;;23.20;;
51792;SDS011;37850;53.178;6.376;2023-04-16T06:34:06;68.55;;;23.15;;
51792;SDS011;37850;53.178;6.376;2023-04-16T06:36:33;71.20;;;23.95;;
51792;SDS011;37850;53.178;6.376;2023-04-16T06:38:58;71.18;;;23.30;;
51792;SDS011;37850;53.178;6.376;2023-04-16T06:41:26;57.60;;;23.13;;
51792;SDS011;37850;53.178;6.376;2023-04-16T06:43:52;58.40;;;21.42;;
51792;SDS011;37850;53.178;6.376;2023-04-16T06:46:18;75.78;;;23.73;;
51792;SDS011;37850;53.178;6.376;2023-04-16T06:48:44;58.28;;;22.95;;
51792;SDS011;37850;53.178;6.376;2023-04-16T06:51:10;71.78;;;23.55;;
51792;SDS011;37850;53.178;6.376;2023-04-16T06:53:36;60.88;;;24.80;;
51792;SDS011;37850;53.178;6.376;2023-04-16T06:56:02;60.60;;;23.02;;
51792;SDS011;37850;53.178;6.376;2023-04-16T06:58:27;60.97;;;22.73;;
51792;SDS011;37850;53.178;6.376;2023-04-16T07:00:53;63.75;;;21.95;;
51792;SDS011;37850;53.178;6.376;2023-04-16T07:03:19;56.10;;;21.58;;
51792;SDS011;37850;53.178;6.376;2023-04-16T07:05:44;52.20;;;21.48;;
51792;SDS011;37850;53.178;6.376;2023-04-16T07:08:10;67.05;;;23.23;;
51792;SDS011;37850;53.178;6.376;2023-04-16T07:10:36;50.78;;;21.15;;
51792;SDS011;37850;53.178;6.376;2023-04-16T07:13:02;64.15;;;22.48;;
51792;SDS011;37850;53.178;6.376;2023-04-16T07:15:28;55.38;;;21.42;;
51792;SDS011;37850;53.178;6.376;2023-04-16T07:17:54;58.90;;;21.52;;
51792;SDS011;37850;53.178;6.376;2023-04-16T07:20:19;61.60;;;22.50;;
51792;SDS011;37850;53.178;6.376;2023-04-16T07:22:45;67.03;;;20.95;;
51792;SDS011;37850;53.178;6.376;2023-04-16T07:25:11;58.53;;;20.92;;
51792;SDS011;37850;53.178;6.376;2023-04-16T07:27:36;61.40;;;21.85;;
51792;SDS011;37850;53.178;6.376;2023-04-16T07:30:02;68.00;;;23.50;;
51792;SDS011;37850;53.178;6.376;2023-04-16T07:32:28;101.65;;;24.52;;
51792;SDS011;37850;53.178;6.376;2023-04-16T07:34:55;50.67;;;20.55;;
51792;SDS011;37850;53.178;6.376;2023-04-16T07:37:21;66.55;;;21.42;;
51792;SDS011;37850;53.178;6.376;2023-04-16T07:39:46;53.15;;;21.52;;
51792;SDS011;37850;53.178;6.376;2023-04-16T07:42:12;54.03;;;19.80;;
51792;SDS011;37850;53.178;6.376;2023-04-16T07:44:38;53.63;;;20.02;;
51792;SDS011;37850;53.178;6.376;2023-04-16T07:47:04;59.03;;;19.23;;
51792;SDS011;37850;53.178;6.376;2023-04-16T07:49:30;52.78;;;19.75;;
51792;SDS011;37850;53.178;6.376;2023-04-16T07:51:56;52.63;;;17.92;;
51792;SDS011;37850;53.178;6.376;2023-04-16T07:54:21;54.50;;;19.80;;
51792;SDS011;37850;53.178;6.376;2023-04-16T07:56:47;47.97;;;19.52;;
51792;SDS011;37850;53.178;6.376;2023-04-16T07:59:13;46.72;;;18.95;;
51792;SDS011;37850;53.178;6.376;2023-04-16T08:01:38;52.85;;;18.80;;
51792;SDS011;37850;53.178;6.376;2023-04-16T08:04:04;46.65;;;19.48;;
51792;SDS011;37850;53.178;6.376;2023-04-16T08:06:30;43.47;;;18.25;;
51792;SDS011;37850;53.178;6.376;2023-04-16T08:08:56;46.80;;;18.38;;
51792;SDS011;37850;53.178;6.376;2023-04-16T08:11:22;41.47;;;17.23;;
51792;SDS011;37850;53.178;6.376;2023-04-16T08:13:51;46.97;;;18.17;;
51792;SDS011;37850;53.178;6.376;2023-04-16T08:16:17;54.00;;;17.63;;
51792;SDS011;37850;53.178;6.376;2023-04-16T08:18:43;39.30;;;17.70;;
51792;SDS011;37850;53.178;6.376;2023-04-16T08:21:08;36.90;;;17.15;;
51792;SDS011;37850;53.178;6.376;2023-04-16T08:23:37;47.60;;;18.17;;
51792;SDS011;37850;53.178;6.376;2023-04-16T08:26:02;35.90;;;16.65;;
51792;SDS011;37850;53.178;6.376;2023-04-16T08:28:28;35.63;;;16.25;;
51792;SDS011;37850;53.178;6.376;2023-04-16T08:30:54;39.45;;;16.35;;
51792;SDS011;37850;53.178;6.376;2023-04-16T08:33:20;41.47;;;16.50;;
51792;SDS011;37850;53.178;6.376;2023-04-16T08:35:46;44.08;;;17.67;;
51792;SDS011;37850;53.178;6.376;2023-04-16T08:38:11;44.22;;;16.90;;
51792;SDS011;37850;53.178;6.376;2023-04-16T08:40:37;44.60;;;16.60;;
51792;SDS011;37850;53.178;6.376;2023-04-16T08:43:08;43.63;;;16.42;;
51792;SDS011;37850;53.178;6.376;2023-04-16T08:45:36;46.63;;;17.30;;
51792;SDS011;37850;53.178;6.376;2023-04-16T08:48:04;43.58;;;16.83;;
51792;SDS011;37850;53.178;6.376;2023-04-16T08:50:31;37.67;;;16.33;;
51792;SDS011;37850;53.178;6.376;2023-04-16T08:52:59;39.53;;;16.48;;
51792;SDS011;37850;53.178;6.376;2023-04-16T08:55:37;45.08;;;17.60;;
51792;SDS011;37850;53.178;6.376;2023-04-16T08:58:08;39.75;;;16.50;;
51792;SDS011;37850;53.178;6.376;2023-04-16T09:00:39;36.80;;;15.85;;
51792;SDS011;37850;53.178;6.376;2023-04-16T09:03:08;34.25;;;15.75;;
51792;SDS011;37850;53.178;6.376;2023-04-16T09:05:36;38.20;;;15.90;;
51792;SDS011;37850;53.178;6.376;2023-04-16T09:08:06;40.95;;;16.35;;
51792;SDS011;37850;53.178;6.376;2023-04-16T09:10:32;37.72;;;15.43;;
51792;SDS011;37850;53.178;6.376;2023-04-16T09:12:59;44.15;;;16.20;;
51792;SDS011;37850;53.178;6.376;2023-04-16T09:15:25;38.70;;;16.05;;
51792;SDS011;37850;53.178;6.376;2023-04-16T09:17:51;38.45;;;15.85;;
51792;SDS011;37850;53.178;6.376;2023-04-16T09:20:18;38.30;;;15.52;;
51792;SDS011;37850;53.178;6.376;2023-04-16T09:22:44;41.00;;;15.65;;
51792;SDS011;37850;53.178;6.376;2023-04-16T09:25:11;31.80;;;14.95;;
51792;SDS011;37850;53.178;6.376;2023-04-16T09:27:37;35.38;;;15.60;;
51792;SDS011;37850;53.178;6.376;2023-04-16T09:32:49;42.45;;;15.55;;
51792;SDS011;37850;53.178;6.376;2023-04-16T09:35:19;35.42;;;16.00;;
51792;SDS011;37850;53.178;6.376;2023-04-16T09:37:55;36.35;;;16.55;;
51792;SDS011;37850;53.178;6.376;2023-04-16T09:40:25;37.13;;;14.88;;
51792;SDS011;37850;53.178;6.376;2023-04-16T09:42:58;41.67;;;15.57;;
51792;SDS011;37850;53.178;6.376;2023-04-16T09:45:24;40.50;;;16.47;;
51792;SDS011;37850;53.178;6.376;2023-04-16T09:48:01;34.30;;;15.32;;
51792;SDS011;37850;53.178;6.376;2023-04-16T09:50:28;41.65;;;15.73;;
51792;SDS011;37850;53.178;6.376;2023-04-16T09:52:54;33.53;;;14.82;;
51792;SDS011;37850;53.178;6.376;2023-04-16T09:55:26;33.60;;;15.65;;
51792;SDS011;37850;53.178;6.376;2023-04-16T09:58:01;36.58;;;15.88;;
51792;SDS011;37850;53.178;6.376;2023-04-16T10:00:27;34.60;;;15.35;;
51792;SDS011;37850;53.178;6.376;2023-04-16T10:03:02;33.85;;;16.15;;
51792;SDS011;37850;53.178;6.376;2023-04-16T10:05:31;32.63;;;15.30;;
51792;SDS011;37850;53.178;6.376;2023-04-16T10:07:59;39.13;;;16.20;;
51792;SDS011;37850;53.178;6.376;2023-04-16T10:10:26;36.00;;;17.10;;
51792;SDS011;37850;53.178;6.376;2023-04-16T10:12:53;43.08;;;16.45;;
51792;SDS011;37850;53.178;6.376;2023-04-16T10:15:20;38.10;;;16.50;;
51792;SDS011;37850;53.178;6.376;2023-04-16T10:17:46;34.97;;;15.82;;
51792;SDS011;37850;53.178;6.376;2023-04-16T10:20:12;27.40;;;15.02;;
51792;SDS011;37850;53.178;6.376;2023-04-16T10:22:40;31.63;;;15.55;;
51792;SDS011;37850;53.178;6.376;2023-04-16T10:25:06;33.70;;;16.20;;
51792;SDS011;37850;53.178;6.376;2023-04-16T10:27:33;32.50;;;14.55;;
51792;SDS011;37850;53.178;6.376;2023-04-16T10:30:00;29.60;;;15.05;;
51792;SDS011;37850;53.178;6.376;2023-04-16T10:32:27;37.13;;;16.70;;
51792;SDS011;37850;53.178;6.376;2023-04-16T10:34:56;39.78;;;17.75;;
51792;SDS011;37850;53.178;6.376;2023-04-16T10:37:28;31.73;;;15.82;;
51792;SDS011;37850;53.178;6.376;2023-04-16T10:39:57;33.42;;;15.05;;
51792;SDS011;37850;53.178;6.376;2023-04-16T10:42:24;40.58;;;16.92;;
51792;SDS011;37850;53.178;6.376;2023-04-16T10:44:50;33.90;;;14.95;;
51792;SDS011;37850;53.178;6.376;2023-04-16T10:47:15;40.88;;;15.50;;
51792;SDS011;37850;53.178;6.376;2023-04-16T10:49:41;36.40;;;16.17;;
51792;SDS011;37850;53.178;6.376;2023-04-16T10:52:11;36.83;;;15.32;;
51792;SDS011;37850;53.178;6.376;2023-04-16T10:54:39;38.80;;;16.08;;
51792;SDS011;37850;53.178;6.376;2023-04-16T10:57:06;47.58;;;16.60;;
51792;SDS011;37850;53.178;6.376;2023-04-16T10:59:34;39.70;;;18.42;;
51792;SDS011;37850;53.178;6.376;2023-04-16T11:02:12;36.25;;;16.92;;
51792;SDS011;37850;53.178;6.376;2023-04-16T11:04:39;37.25;;;17.25;;
51792;SDS011;37850;53.178;6.376;2023-04-16T11:12:31;33.10;;;16.20;;
51792;SDS011;37850;53.178;6.376;2023-04-16T11:15:13;32.97;;;16.25;;
51792;SDS011;37850;53.178;6.376;2023-04-16T11:17:42;37.40;;;18.38;;
51792;SDS011;37850;53.178;6.376;2023-04-16T11:20:15;34.22;;;16.70;;
51792;SDS011;37850;53.178;6.376;2023-04-16T11:22:42;35.53;;;16.45;;
51792;SDS011;37850;53.178;6.376;2023-04-16T11:25:09;31.33;;;16.50;;
51792;SDS011;37850;53.178;6.376;2023-04-16T11:27:35;39.03;;;17.48;;
51792;SDS011;37850;53.178;6.376;2023-04-16T11:30:07;41.95;;;16.88;;
51792;SDS011;37850;53.178;6.376;2023-04-16T11:32:37;34.53;;;16.00;;
51792;SDS011;37850;53.178;6.376;2023-04-16T11:35:04;36.20;;;15.77;;
51792;SDS011;37850;53.178;6.376;2023-04-16T11:37:41;42.28;;;17.63;;
51792;SDS011;37850;53.178;6.376;2023-04-16T11:40:07;42.47;;;18.33;;
51792;SDS011;37850;53.178;6.376;2023-04-16T11:42:34;39.97;;;17.58;;
51792;SDS011;37850;53.178;6.376;2023-04-16T11:45:07;43.58;;;19.00;;
51792;SDS011;37850;53.178;6.376;2023-04-16T11:47:45;38.92;;;18.05;;
51792;SDS011;37850;53.178;6.376;2023-04-16T11:52:46;37.42;;;17.80;;
51792;SDS011;37850;53.178;6.376;2023-04-16T11:55:13;33.42;;;16.30;;
51792;SDS011;37850;53.178;6.376;2023-04-16T11:57:38;41.70;;;18.38;;
51792;SDS011;37850;53.178;6.376;2023-04-16T12:00:04;43.35;;;18.25;;
51792;SDS011;37850;53.178;6.376;2023-04-16T12:07:55;33.53;;;17.60;;
51792;SDS011;37850;53.178;6.376;2023-04-16T12:10:22;37.30;;;19.05;;
51792;SDS011;37850;53.178;6.376;2023-04-16T12:12:49;32.35;;;17.95;;
51792;SDS011;37850;53.178;6.376;2023-04-16T12:15:15;35.72;;;18.10;;
51792;SDS011;37850;53.178;6.376;2023-04-16T12:17:40;34.17;;;18.25;;
51792;SDS011;37850;53.178;6.376;2023-04-16T12:20:10;37.78;;;17.77;;
51792;SDS011;37850;53.178;6.376;2023-04-16T12:25:12;34.13;;;16.27;;
51792;SDS011;37850;53.178;6.376;2023-04-16T12:27:44;38.03;;;16.85;;
51792;SDS011;37850;53.178;6.376;2023-04-16T12:30:12;36.67;;;17.15;;
51792;SDS011;37850;53.178;6.376;2023-04-16T12:32:40;27.17;;;16.67;;
51792;SDS011;37850;53.178;6.376;2023-04-16T12:35:11;35.42;;;16.88;;
51792;SDS011;37850;53.178;6.376;2023-04-16T12:37:38;34.80;;;17.00;;
51792;SDS011;37850;53.178;6.376;2023-04-16T12:40:05;34.53;;;16.95;;
51792;SDS011;37850;53.178;6.376;2023-04-16T12:42:31;28.55;;;15.60;;
51792;SDS011;37850;53.178;6.376;2023-04-16T12:45:01;28.42;;;15.35;;
51792;SDS011;37850;53.178;6.376;2023-04-16T12:47:28;30.75;;;16.63;;
51792;SDS011;37850;53.178;6.376;2023-04-16T12:49:55;31.58;;;15.65;;
51792;SDS011;37850;53.178;6.376;2023-04-16T12:52:22;26.95;;;14.55;;
51792;SDS011;37850;53.178;6.376;2023-04-16T12:54:51;32.17;;;16.17;;
51792;SDS011;37850;53.178;6.376;2023-04-16T12:57:17;31.98;;;14.48;;
51792;SDS011;37850;53.178;6.376;2023-04-16T12:59:43;29.02;;;15.95;;
51792;SDS011;37850;53.178;6.376;2023-04-16T13:02:10;30.50;;;15.55;;
51792;SDS011;37850;53.178;6.376;2023-04-16T13:04:36;31.45;;;16.30;;
51792;SDS011;37850;53.178;6.376;2023-04-16T13:07:02;35.35;;;17.15;;
51792;SDS011;37850;53.178;6.376;2023-04-16T13:09:28;32.60;;;14.65;;
51792;SDS011;37850;53.178;6.376;2023-04-16T13:11:53;35.70;;;15.25;;
51792;SDS011;37850;53.178;6.376;2023-04-16T13:14:20;32.45;;;15.55;;
51792;SDS011;37850;53.178;6.376;2023-04-16T13:16:45;27.27;;;15.65;;
51792;SDS011;37850;53.178;6.376;2023-04-16T13:19:11;33.40;;;16.67;;
51792;SDS011;37850;53.178;6.376;2023-04-16T13:21:37;30.90;;;15.82;;
51792;SDS011;37850;53.178;6.376;2023-04-16T13:24:03;37.10;;;16.40;;
51792;SDS011;37850;53.178;6.376;2023-04-16T13:26:34;33.15;;;15.63;;
51792;SDS011;37850;53.178;6.376;2023-04-16T13:29:00;26.67;;;15.50;;
51792;SDS011;37850;53.178;6.376;2023-04-16T13:31:26;28.73;;;15.48;;
51792;SDS011;37850;53.178;6.376;2023-04-16T13:33:51;25.10;;;15.15;;
51792;SDS011;37850;53.178;6.376;2023-04-16T13:36:17;25.10;;;14.88;;
51792;SDS011;37850;53.178;6.376;2023-04-16T13:38:43;33.88;;;15.52;;
51792;SDS011;37850;53.178;6.376;2023-04-16T13:41:09;27.88;;;14.50;;
51792;SDS011;37850;53.178;6.376;2023-04-16T13:43:35;25.10;;;14.75;;
51792;SDS011;37850;53.178;6.376;2023-04-16T13:46:01;32.50;;;15.50;;
51792;SDS011;37850;53.178;6.376;2023-04-16T13:48:27;28.98;;;15.25;;
51792;SDS011;37850;53.178;6.376;2023-04-16T13:50:53;27.92;;;14.77;;
51792;SDS011;37850;53.178;6.376;2023-04-16T13:53:20;25.27;;;14.55;;
51792;SDS011;37850;53.178;6.376;2023-04-16T13:55:46;35.97;;;15.60;;
51792;SDS011;37850;53.178;6.376;2023-04-16T13:58:13;30.50;;;15.65;;
51792;SDS011;37850;53.178;6.376;2023-04-16T14:00:40;28.48;;;15.55;;
51792;SDS011;37850;53.178;6.376;2023-04-16T14:03:07;28.42;;;15.05;;
51792;SDS011;37850;53.178;6.376;2023-04-16T14:05:32;24.45;;;13.65;;
51792;SDS011;37850;53.178;6.376;2023-04-16T14:07:58;29.15;;;16.33;;
51792;SDS011;37850;53.178;6.376;2023-04-16T14:10:24;35.40;;;18.50;;
51792;SDS011;37850;53.178;6.376;2023-04-16T14:12:50;26.33;;;15.30;;
51792;SDS011;37850;53.178;6.376;2023-04-16T14:15:15;28.40;;;14.20;;
51792;SDS011;37850;53.178;6.376;2023-04-16T14:17:42;28.02;;;15.90;;
51792;SDS011;37850;53.178;6.376;2023-04-16T14:20:12;27.88;;;15.70;;
51792;SDS011;37850;53.178;6.376;2023-04-16T14:22:38;27.55;;;15.80;;
51792;SDS011;37850;53.178;6.376;2023-04-16T14:25:04;27.63;;;15.38;;
51792;SDS011;37850;53.178;6.376;2023-04-16T14:27:31;37.80;;;16.52;;
51792;SDS011;37850;53.178;6.376;2023-04-16T14:29:58;26.27;;;15.07;;
51792;SDS011;37850;53.178;6.376;2023-04-16T14:32:24;30.30;;;15.88;;
51792;SDS011;37850;53.178;6.376;2023-04-16T14:34:50;32.63;;;15.25;;
51792;SDS011;37850;53.178;6.376;2023-04-16T14:37:16;27.50;;;15.57;;